Terminal Aerodrome Forecast
Issued by NWS

Home | Current Version | Previous Version | Text Only | Print | Product List | Glossary On
Versions: 1 2 3 4 5 6 7 8 9 10 11 12 13 14 15 16 17 18
000
FTAK31 PAJN 201735
TAFASI
TAF
PASI 201735Z 2018/2118 20004KT P6SM OVC012
     FM202100 21007KT P6SM SCT015 BKN035 OVC050
     FM210500 14004KT P6SM BKN050
     FM211300 11005KT P6SM SCT015 OVC035=

USA.gov is the U.S. government's official web portal to all federal, state and local government web resources and services.